Time;durP1;ratioP1;P1;durP2;ratioP2;P2;SDS_P1;SDS_P2;PMS_P1;PMS_P2;Temp;Humidity;BMP_temperature;BMP_pressure;BME280_temperature;BME280_humidity;BME280_pressure;Samples;Min_cycle;Max_cycle;Signal;HPM_P1;HPM_P2
2023/05/28 00:01:30;;;;;;;12.32;4.65;;;19.30;66.90;;;;;;4196722;28;20501;-51
2023/05/28 00:04:11;;;;;;;7.53;4.30;;;19.20;66.50;;;;;;4206771;28;20363;-52
2023/05/28 00:06:53;;;;;;;12.93;4.65;;;19.20;66.30;;;;;;4208256;28;20145;-54
2023/05/28 00:09:34;;;;;;;13.27;4.78;;;19.20;66.20;;;;;;4208429;28;20054;-53
2023/05/28 00:12:15;;;;;;;11.52;4.57;;;19.20;67.00;;;;;;4201815;28;20055;-61
2023/05/28 00:14:56;;;;;;;12.60;4.80;;;19.20;65.90;;;;;;4191479;28;20117;-61
2023/05/28 00:17:38;;;;;;;10.02;4.60;;;19.20;65.90;;;;;;4191234;28;20141;-61
2023/05/28 00:20:20;;;;;;;11.35;4.72;;;19.20;66.10;;;;;;4190877;28;20569;-53
2023/05/28 00:23:01;;;;;;;;;;;19.20;66.30;;;;;;4190685;28;20050;-54
2023/05/28 00:25:42;;;;;;;14.07;5.33;;;19.20;66.20;;;;;;4189860;28;20393;-54
2023/05/28 00:28:23;;;;;;;13.63;4.75;;;19.20;66.50;;;;;;4194120;28;20054;-53
2023/05/28 00:31:04;;;;;;;12.20;4.70;;;19.20;66.10;;;;;;4206546;28;20055;-53
2023/05/28 00:33:46;;;;;;;13.57;4.25;;;19.10;65.90;;;;;;4210994;28;20062;-61
2023/05/28 00:36:28;;;;;;;8.52;4.68;;;19.20;66.20;;;;;;4209885;28;20144;-60
2023/05/28 00:39:09;;;;;;;10.88;4.25;;;19.20;66.20;;;;;;4193904;28;20059;-60
2023/05/28 00:42:00;;;;;;;;;;;19.10;66.10;;;;;;4194473;28;20415;-60
2023/05/28 00:44:42;;;;;;;11.93;4.53;;;19.10;66.50;;;;;;4195545;28;19927;-61
2023/05/28 00:47:23;;;;;;;13.65;4.80;;;19.10;67.10;;;;;;4190191;28;20182;-60
2023/05/28 00:50:07;;;;;;;;;;;19.10;66.80;;;;;;4194719;28;20063;-60
2023/05/28 00:52:51;;;;;;;10.02;4.93;;;19.10;66.70;;;;;;4194327;28;19926;-60
2023/05/28 00:55:32;;;;;;;10.73;4.88;;;19.10;67.00;;;;;;4193882;28;20051;-60
2023/05/28 00:58:16;;;;;;;12.70;4.70;;;19.10;66.70;;;;;;4193082;28;20186;-60
2023/05/28 01:00:56;;;;;;;9.93;4.50;;;19.10;66.60;;;;;;4194036;28;20510;-60
2023/05/28 01:03:38;;;;;;;10.98;4.35;;;19.00;66.60;;;;;;4196662;28;20062;-62
2023/05/28 01:06:22;;;;;;;6.90;4.10;;;19.00;66.70;;;;;;4193967;28;20055;-61
2023/05/28 01:09:03;;;;;;;10.07;4.07;;;19.00;66.80;;;;;;4188414;28;20135;-62
2023/05/28 01:11:46;;;;;;;14.55;4.88;;;19.00;67.10;;;;;;4184309;28;20130;-61
2023/05/28 01:14:27;;;;;;;13.25;5.15;;;19.00;67.30;;;;;;4193215;28;20060;-62
2023/05/28 01:17:09;;;;;;;10.90;4.38;;;19.00;67.40;;;;;;4194218;28;20055;-61
2023/05/28 01:19:50;;;;;;;14.70;4.78;;;19.00;67.30;;;;;;4208956;28;20047;-62
2023/05/28 01:22:38;;;;;;;15.75;4.78;;;19.00;67.40;;;;;;4209303;28;20054;-61
2023/05/28 01:25:23;;;;;;;12.75;5.50;;;19.00;67.50;;;;;;4208895;28;20128;-62
2023/05/28 01:28:11;;;;;;;11.40;4.85;;;19.00;67.60;;;;;;4205988;28;20410;-62
2023/05/28 01:30:52;;;;;;;9.40;4.72;;;19.00;67.60;;;;;;4175965;28;20051;-61
2023/05/28 01:33:34;;;;;;;12.65;4.90;;;19.00;68.50;;;;;;4176841;28;20056;-62
2023/05/28 01:36:21;;;;;;;11.88;4.63;;;19.00;67.50;;;;;;4175776;28;20178;-62
2023/05/28 01:39:02;;;;;;;9.35;4.35;;;19.00;67.50;;;;;;4177201;28;20130;-61
2023/05/28 01:41:46;;;;;;;13.52;4.85;;;19.00;67.50;;;;;;4184489;28;20518;-62
2023/05/28 01:44:31;;;;;;;13.07;4.72;;;19.00;67.40;;;;;;4187257;28;20167;-61
2023/05/28 01:47:14;;;;;;;9.27;4.35;;;19.00;67.10;;;;;;4176651;28;20420;-60
2023/05/28 01:49:56;;;;;;;11.00;4.90;;;18.90;67.00;;;;;;4174933;28;20056;-60
2023/05/28 01:52:37;;;;;;;10.60;4.30;;;19.00;67.30;;;;;;4207635;28;20043;-60
2023/05/28 01:55:18;;;;;;;;;;;19.00;67.30;;;;;;4203617;28;20129;-60
2023/05/28 01:58:01;;;;;;;9.48;4.55;;;18.90;67.30;;;;;;4191683;28;19926;-60
2023/05/28 02:00:47;;;;;;;11.23;4.30;;;18.90;67.70;;;;;;4191736;28;20060;-60
2023/05/28 02:03:28;;;;;;;13.10;4.50;;;18.90;67.40;;;;;;4179963;28;20063;-59
2023/05/28 02:06:10;;;;;;;12.60;4.72;;;18.90;67.30;;;;;;4191805;28;20047;-52
2023/05/28 02:08:52;;;;;;;20.45;5.13;;;18.90;67.20;;;;;;4192916;28;20506;-51
2023/05/28 02:11:33;;;;;;;11.90;4.13;;;18.90;67.20;;;;;;4191397;28;20051;-49
2023/05/28 02:14:16;;;;;;;9.23;4.38;;;18.90;67.40;;;;;;4191602;28;20122;-51
2023/05/28 02:16:59;;;;;;;11.45;3.75;;;18.90;66.50;;;;;;4191322;28;20182;-53
2023/05/28 02:19:40;;;;;;;9.95;4.32;;;18.90;67.50;;;;;;4190779;28;20198;-51
2023/05/28 02:22:21;;;;;;;11.93;4.57;;;18.90;67.80;;;;;;4192716;28;20058;-52
2023/05/28 02:25:02;;;;;;;11.65;4.75;;;18.90;67.90;;;;;;4175715;28;20090;-59
2023/05/28 02:27:45;;;;;;;14.35;4.78;;;18.80;67.70;;;;;;4180604;28;20052;-59
2023/05/28 02:30:27;;;;;;;13.85;5.25;;;18.80;67.50;;;;;;4191362;28;20056;-59
2023/05/28 02:33:08;;;;;;;12.43;4.22;;;18.80;67.80;;;;;;4192958;28;20047;-60
2023/05/28 02:35:51;;;;;;;10.98;3.80;;;18.80;68.10;;;;;;4191467;28;20513;-59
2023/05/28 02:38:32;;;;;;;10.40;4.90;;;18.80;68.30;;;;;;4192755;28;20070;-59
2023/05/28 02:41:13;;;;;;;10.57;4.38;;;18.80;68.40;;;;;;4205154;28;20194;-59
2023/05/28 02:44:00;;;;;;;12.65;4.95;;;18.80;68.50;;;;;;4201606;28;20510;-59
2023/05/28 02:46:42;;;;;;;16.73;5.85;;;18.80;69.40;;;;;;4191445;28;20453;-59
2023/05/28 02:49:23;;;;;;;12.38;4.32;;;18.80;68.40;;;;;;4204739;28;20211;-59
2023/05/28 02:52:05;;;;;;;11.25;4.30;;;18.80;68.10;;;;;;4209469;28;20121;-59
2023/05/28 02:54:56;;;;;;;12.02;4.30;;;18.80;67.90;;;;;;4209353;28;20051;-59
2023/05/28 02:57:38;;;;;;;11.68;4.47;;;18.80;67.90;;;;;;4206400;28;20059;-59
2023/05/28 03:00:21;;;;;;;10.25;4.78;;;18.80;67.80;;;;;;4201877;28;20047;-59
2023/05/28 03:03:04;;;;;;;13.70;4.70;;;18.80;67.80;;;;;;4190867;28;20120;-59
2023/05/28 03:05:45;;;;;;;11.27;4.82;;;18.80;68.00;;;;;;4190722;28;20048;-59
2023/05/28 03:08:27;;;;;;;11.38;4.57;;;18.70;68.10;;;;;;4189973;28;20126;-59
2023/05/28 03:11:08;;;;;;;14.35;4.30;;;18.70;68.00;;;;;;4191179;28;20048;-59
2023/05/28 03:13:50;;;;;;;14.18;4.60;;;18.70;68.10;;;;;;4191445;28;20047;-59
2023/05/28 03:16:32;;;;;;;12.77;5.13;;;18.70;68.10;;;;;;4190939;28;20067;-59
2023/05/28 03:19:15;;;;;;;10.27;4.53;;;18.70;68.20;;;;;;4174145;28;20080;-60
2023/05/28 03:21:56;;;;;;;17.50;5.07;;;18.70;68.40;;;;;;4174406;28;20056;-58
2023/05/28 03:24:44;;;;;;;8.13;4.22;;;18.70;68.50;;;;;;4174669;28;20184;-58
2023/05/28 03:27:26;;;;;;;12.10;4.32;;;18.70;68.60;;;;;;4174166;28;20110;-59
2023/05/28 03:30:09;;;;;;;;;;;18.70;68.60;;;;;;4195015;28;20055;-58
2023/05/28 03:32:58;;;;;;;11.60;4.57;;;18.70;68.50;;;;;;4207923;28;19972;-60
2023/05/28 03:35:41;;;;;;;11.27;4.10;;;18.70;68.70;;;;;;4179415;28;20048;-59
2023/05/28 03:38:22;;;;;;;9.60;3.70;;;18.60;68.70;;;;;;4191144;28;20129;-60
2023/05/28 03:41:03;;;;;;;8.45;3.65;;;18.60;68.80;;;;;;4191887;28;20048;-58
2023/05/28 03:43:44;;;;;;;11.73;4.13;;;18.60;68.60;;;;;;4190612;28;20048;-58
2023/05/28 03:46:26;;;;;;;9.15;3.40;;;18.60;68.90;;;;;;4201339;28;20093;-59
2023/05/28 03:49:07;;;;;;;10.27;4.28;;;18.60;69.10;;;;;;4196103;28;20054;-59
2023/05/28 03:51:50;;;;;;;15.05;4.28;;;18.60;69.20;;;;;;4190684;28;20622;-58
2023/05/28 03:54:32;;;;;;;11.82;4.30;;;18.60;70.10;;;;;;4190459;28;20051;-59
2023/05/28 03:57:13;;;;;;;10.30;3.58;;;18.60;70.20;;;;;;4190968;28;20055;-59
2023/05/28 03:59:55;;;;;;;13.77;4.68;;;18.60;69.40;;;;;;4190593;28;20051;-55
2023/05/28 04:02:37;;;;;;;16.35;3.85;;;18.60;69.40;;;;;;4199766;28;20097;-56
2023/05/28 04:05:18;;;;;;;14.80;4.38;;;18.60;69.40;;;;;;4210864;28;20089;-54
2023/05/28 04:08:00;;;;;;;6.63;3.95;;;18.60;68.90;;;;;;4211939;28;20117;-56
2023/05/28 04:10:41;;;;;;;10.82;4.00;;;18.60;68.80;;;;;;4210517;28;20066;-55
2023/05/28 04:13:23;;;;;;;11.45;3.60;;;18.60;68.80;;;;;;4210124;28;20514;-56
2023/05/28 04:16:05;;;;;;;13.05;4.13;;;18.50;68.90;;;;;;4211377;28;20055;-55
2023/05/28 04:18:47;;;;;;;12.30;4.28;;;18.60;69.00;;;;;;4202241;28;20048;-56
2023/05/28 04:21:30;;;;;;;10.68;4.32;;;18.60;69.00;;;;;;4193708;28;20051;-57
2023/05/28 04:24:13;;;;;;;13.57;4.60;;;18.60;69.10;;;;;;4193470;28;20047;-56
2023/05/28 04:26:54;;;;;;;7.40;3.50;;;18.60;69.40;;;;;;4194676;28;20047;-55
2023/05/28 04:29:35;;;;;;;11.13;4.03;;;18.50;70.30;;;;;;4187533;28;20980;-56
2023/05/28 04:32:16;;;;;;;9.68;3.70;;;18.60;69.60;;;;;;4194338;28;20059;-57
2023/05/28 04:34:57;;;;;;;10.80;3.58;;;18.50;69.50;;;;;;4197643;28;20424;-55
2023/05/28 04:37:39;;;;;;;10.48;3.92;;;18.60;69.60;;;;;;4210423;28;20177;-57
2023/05/28 04:40:21;;;;;;;12.73;3.50;;;18.60;70.50;;;;;;4209931;28;20058;-54
2023/05/28 04:43:03;;;;;;;9.60;3.90;;;18.50;69.50;;;;;;4193268;28;20498;-54
2023/05/28 04:45:44;;;;;;;9.07;4.07;;;18.50;69.50;;;;;;4193187;28;20503;-60
2023/05/28 04:48:26;;;;;;;6.72;3.25;;;18.60;69.80;;;;;;4181903;28;20051;-61
2023/05/28 04:51:07;;;;;;;8.48;4.00;;;18.60;69.90;;;;;;4192786;28;20047;-61
2023/05/28 04:53:48;;;;;;;13.32;4.60;;;18.60;69.80;;;;;;4188143;28;20071;-61
2023/05/28 04:56:31;;;;;;;11.60;3.67;;;18.60;69.50;;;;;;4187911;28;20047;-61
2023/05/28 04:59:12;;;;;;;13.15;4.13;;;18.60;69.50;;;;;;4181550;28;20074;-61
2023/05/28 05:01:53;;;;;;;10.70;4.63;;;18.60;69.50;;;;;;4176306;28;20128;-62
2023/05/28 05:04:34;;;;;;;10.88;3.92;;;18.60;69.60;;;;;;4177177;28;20056;-66
2023/05/28 05:07:15;;;;;;;9.35;4.22;;;18.60;69.60;;;;;;4177061;28;20555;-61
2023/05/28 05:09:57;;;;;;;;;;;18.60;69.50;;;;;;4180975;28;20051;-63
2023/05/28 05:12:40;;;;;;;10.48;4.38;;;18.60;69.50;;;;;;4193278;28;19934;-62
2023/05/28 05:15:22;;;;;;;10.55;3.90;;;18.60;70.10;;;;;;4192711;28;20050;-63
2023/05/28 05:18:03;;;;;;;13.27;4.60;;;18.60;70.10;;;;;;4194285;28;20059;-61
2023/05/28 05:20:44;;;;;;;;;;;18.60;69.00;;;;;;4192756;28;20055;-62
2023/05/28 05:23:25;;;;;;;11.32;4.47;;;18.50;69.10;;;;;;4191160;28;20463;-61
2023/05/28 05:26:06;;;;;;;10.13;3.95;;;18.50;69.50;;;;;;4208337;28;20067;-62
2023/05/28 05:28:50;;;;;;;8.82;4.03;;;18.60;69.60;;;;;;4209226;28;20568;-62
2023/05/28 05:31:31;;;;;;;10.68;4.00;;;18.50;69.70;;;;;;4209190;28;20540;-59
2023/05/28 05:34:12;;;;;;;;;;;18.60;70.00;;;;;;4209848;28;20063;-59
2023/05/28 05:36:53;;;;;;;9.02;4.45;;;18.60;70.00;;;;;;4199075;28;19930;-58
2023/05/28 05:39:34;;;;;;;11.48;4.05;;;18.60;70.00;;;;;;4193698;28;20388;-58
2023/05/28 05:42:41;;;;;;;8.18;4.10;;;18.70;70.20;;;;;;4196800;28;20051;-58
2023/05/28 05:45:24;;;;;;;14.38;4.15;;;18.80;70.10;;;;;;4192412;28;20183;-60
2023/05/28 05:48:06;;;;;;;7.07;3.75;;;18.80;69.90;;;;;;4192321;28;20051;-58
2023/05/28 05:50:48;;;;;;;;;;;18.90;69.80;;;;;;4192861;28;20399;-59
2023/05/28 05:53:28;;;;;;;9.38;4.07;;;18.90;69.40;;;;;;4192078;28;19931;-58
2023/05/28 05:56:10;;;;;;;10.30;4.10;;;18.90;69.30;;;;;;4193294;28;20063;-59
2023/05/28 05:58:51;;;;;;;;;;;18.90;69.10;;;;;;4205530;28;20098;-58
2023/05/28 06:01:33;;;;;;;8.82;4.13;;;18.90;68.70;;;;;;4202996;28;20295;-58
2023/05/28 06:04:15;;;;;;;12.73;4.22;;;18.90;68.80;;;;;;4192097;28;20486;-60
2023/05/28 06:07:28;;;;;;;6.57;3.72;;;19.00;68.80;;;;;;4168433;28;20055;-59
2023/05/28 06:10:33;;;;;;;11.23;4.55;;;19.00;68.50;;;;;;4174986;28;20056;-58
2023/05/28 06:13:14;;;;;;;10.20;4.60;;;19.00;69.10;;;;;;4184442;28;20055;-58
2023/05/28 06:15:55;;;;;;;8.43;3.75;;;19.10;67.80;;;;;;4192733;28;20052;-58
2023/05/28 06:18:38;;;;;;;;;;;19.10;67.50;;;;;;4191883;28;20085;-59
2023/05/28 06:21:20;;;;;;;8.20;5.00;;;19.10;67.10;;;;;;4191276;28;20520;-59
2023/05/28 06:24:03;;;;;;;6.78;4.85;;;19.10;65.10;;;;;;4191209;28;20526;-59
2023/05/28 06:26:44;;;;;;;7.95;4.88;;;19.20;63.10;;;;;;4191480;28;20125;-61
2023/05/28 06:29:25;;;;;;;10.73;5.13;;;19.20;62.60;;;;;;4191299;28;20058;-61
2023/05/28 06:32:07;;;;;;;7.25;4.82;;;19.20;62.70;;;;;;4190935;28;20114;-60
2023/05/28 06:34:50;;;;;;;10.32;4.93;;;19.30;62.50;;;;;;4192271;28;20051;-60
2023/05/28 06:37:31;;;;;;;9.93;5.03;;;19.30;61.80;;;;;;4174771;28;20594;-60
2023/05/28 06:40:12;;;;;;;6.40;4.68;;;19.40;61.90;;;;;;4175042;28;20083;-61
2023/05/28 06:42:53;;;;;;;7.13;3.85;;;19.40;62.30;;;;;;4175880;28;20610;-60
2023/05/28 06:45:46;;;;;;;8.07;4.30;;;19.40;62.70;;;;;;4174364;28;20064;-60
2023/05/28 06:48:27;;;;;;;6.75;4.47;;;19.50;62.20;;;;;;4191214;28;20055;-60
2023/05/28 06:51:10;;;;;;;6.00;4.28;;;19.60;61.60;;;;;;4191024;28;20062;-60
2023/05/28 06:53:51;;;;;;;7.40;3.50;;;19.60;60.40;;;;;;4190990;28;20048;-60
2023/05/28 06:56:37;;;;;;;5.20;3.58;;;19.70;60.10;;;;;;4191310;28;20093;-60
2023/05/28 06:59:45;;;;;;;7.72;3.70;;;19.70;60.00;;;;;;4190616;28;20415;-60
2023/05/28 07:02:46;;;;;;;7.50;3.45;;;19.80;59.80;;;;;;4191478;28;20449;-45
2023/05/28 07:05:39;;;;;;;6.40;3.83;;;19.90;59.80;;;;;;4198126;28;20051;-45
2023/05/28 07:08:24;;;;;;;9.88;4.07;;;19.90;59.50;;;;;;4174315;28;20064;-43
2023/05/28 07:11:04;;;;;;;5.07;3.83;;;20.00;59.70;;;;;;4174330;28;20048;-49
2023/05/28 07:13:46;;;;;;;6.60;3.10;;;20.00;59.90;;;;;;4174440;28;20060;-46
2023/05/28 07:16:27;;;;;;;7.95;3.38;;;20.00;59.90;;;;;;4174358;28;20408;-43
2023/05/28 07:19:08;;;;;;;9.18;3.88;;;20.10;59.80;;;;;;4174324;28;20056;-47
2023/05/28 07:21:50;;;;;;;7.30;3.35;;;20.10;59.70;;;;;;4201283;28;20505;-46
2023/05/28 07:24:33;;;;;;;5.72;2.85;;;20.10;57.50;;;;;;4174500;28;20056;-45
2023/05/28 07:27:14;;;;;;;6.47;3.08;;;20.10;56.50;;;;;;4174528;28;20101;-45
2023/05/28 07:29:56;;;;;;;4.68;3.10;;;20.10;56.10;;;;;;4174225;28;20451;-46
2023/05/28 07:32:38;;;;;;;4.70;2.97;;;20.20;56.30;;;;;;4178206;28;20098;-46
2023/05/28 07:35:20;;;;;;;4.68;2.70;;;20.20;55.80;;;;;;4182612;28;20101;-45
2023/05/28 07:38:02;;;;;;;;;;;20.20;55.00;;;;;;4183308;28;20415;-45
2023/05/28 07:40:45;;;;;;;6.65;3.10;;;20.20;54.80;;;;;;4178849;28;19957;-43
2023/05/28 07:43:34;;;;;;;4.65;2.58;;;20.10;55.20;;;;;;4177789;28;20408;-47
2023/05/28 07:46:21;;;;;;;4.10;3.00;;;20.10;54.70;;;;;;4177738;28;20051;-44
2023/05/28 07:49:06;;;;;;;4.40;2.88;;;20.10;53.60;;;;;;4200624;28;20395;-44
2023/05/28 07:52:00;;;;;;;5.25;3.30;;;20.00;53.50;;;;;;4208636;28;20490;-44
2023/05/28 07:54:44;;;;;;;5.97;3.00;;;20.00;53.10;;;;;;4192569;28;20043;-47
2023/05/28 07:57:30;;;;;;;4.90;3.40;;;20.00;53.00;;;;;;4193935;28;20071;-55
2023/05/28 08:00:15;;;;;;;5.35;3.20;;;20.00;52.80;;;;;;4184951;28;20186;-55
2023/05/28 08:03:05;;;;;;;3.97;3.05;;;20.00;52.30;;;;;;4209738;28;20059;-55
2023/05/28 08:05:52;;;;;;;5.65;3.75;;;20.00;52.40;;;;;;4207465;28;20063;-55
2023/05/28 08:08:34;;;;;;;4.50;3.08;;;20.00;52.10;;;;;;4177238;28;20056;-54
2023/05/28 08:11:16;;;;;;;5.15;3.40;;;20.00;51.40;;;;;;4189606;28;20055;-55
2023/05/28 08:13:59;;;;;;;4.10;3.33;;;20.00;52.40;;;;;;4194791;28;20071;-55
2023/05/28 08:16:40;;;;;;;7.75;3.35;;;20.00;51.60;;;;;;4194893;28;20144;-53
2023/05/28 08:19:47;;;;;;;5.28;3.45;;;20.00;51.40;;;;;;4191545;28;20127;-53
2023/05/28 08:22:51;;;;;;;5.97;3.00;;;20.00;51.20;;;;;;4194775;28;20051;-53
2023/05/28 08:25:34;;;;;;;5.57;3.40;;;20.00;51.60;;;;;;4194895;28;20063;-51
2023/05/28 08:28:25;;;;;;;4.63;3.30;;;20.00;52.10;;;;;;4181661;28;20130;-52
2023/05/28 08:31:07;;;;;;;5.60;3.90;;;20.00;51.30;;;;;;4193274;28;20190;-52
2023/05/28 08:34:08;;;;;;;7.28;4.18;;;20.00;51.20;;;;;;4205377;28;20051;-53
2023/05/28 08:36:51;;;;;;;6.05;4.13;;;20.10;51.50;;;;;;4210370;28;20046;-52
2023/05/28 08:39:39;;;;;;;5.10;4.00;;;20.10;51.00;;;;;;4209998;28;20055;-53
2023/05/28 08:42:20;;;;;;;6.28;3.90;;;20.10;51.00;;;;;;4211170;28;20136;-53
2023/05/28 08:45:02;;;;;;;5.53;4.03;;;20.10;51.30;;;;;;4192525;28;20055;-53
2023/05/28 08:47:47;;;;;;;4.97;3.42;;;20.20;52.70;;;;;;4192823;28;20047;-50
2023/05/28 08:50:35;;;;;;;5.03;3.45;;;20.20;52.60;;;;;;4190446;28;20553;-51
2023/05/28 08:53:29;;;;;;;;;;;20.20;53.40;;;;;;4176655;28;20056;-52
2023/05/28 08:56:11;;;;;;;5.95;3.88;;;20.20;53.60;;;;;;4176677;28;20064;-56
2023/05/28 08:58:53;;;;;;;9.20;4.00;;;20.30;53.50;;;;;;4176664;28;20052;-53
2023/05/28 09:01:35;;;;;;;8.73;4.72;;;20.30;53.50;;;;;;4165030;28;20172;-53
2023/05/28 09:04:21;;;;;;;7.13;4.60;;;20.30;54.00;;;;;;4208062;28;20113;-54
2023/05/28 09:07:02;;;;;;;6.43;4.45;;;20.30;53.70;;;;;;4194500;28;20066;-50
2023/05/28 09:09:52;;;;;;;6.40;4.53;;;20.30;53.90;;;;;;4193022;28;20055;-50
2023/05/28 09:12:34;;;;;;;6.13;4.32;;;20.40;54.00;;;;;;4193206;28;20388;-54
2023/05/28 09:15:22;;;;;;;6.47;4.30;;;20.40;53.90;;;;;;4193828;28;20517;-53
2023/05/28 09:18:05;;;;;;;8.32;4.75;;;20.40;53.80;;;;;;4207063;28;20108;-52
2023/05/28 09:20:50;;;;;;;7.78;4.15;;;20.50;53.60;;;;;;4209149;28;20174;-53
2023/05/28 09:23:35;;;;;;;7.53;5.30;;;20.50;53.30;;;;;;4187416;28;20052;-55
2023/05/28 09:26:35;;;;;;;6.80;4.97;;;20.50;53.30;;;;;;4207677;28;20075;-54
2023/05/28 09:29:30;;;;;;;8.98;4.75;;;20.60;52.40;;;;;;4208972;28;20136;-54
2023/05/28 09:32:11;;;;;;;8.23;4.78;;;20.50;52.60;;;;;;4176185;28;20064;-53
2023/05/28 09:34:52;;;;;;;6.55;5.32;;;20.60;53.20;;;;;;4176921;28;20064;-50
2023/05/28 09:37:35;;;;;;;7.78;5.85;;;20.60;52.90;;;;;;4176823;28;20063;-55
2023/05/28 09:40:18;;;;;;;7.20;5.43;;;20.60;51.70;;;;;;4192687;28;20511;-49
2023/05/28 09:43:00;;;;;;;8.13;5.72;;;20.70;51.50;;;;;;4193360;28;20055;-46
2023/05/28 09:45:40;;;;;;;8.75;5.20;;;20.70;50.60;;;;;;4206339;28;20055;-46
2023/05/28 09:48:21;;;;;;;7.97;5.30;;;20.70;50.90;;;;;;4209913;28;20047;-44
2023/05/28 09:51:05;;;;;;;8.10;5.30;;;20.70;50.60;;;;;;4210034;28;20051;-45
2023/05/28 09:53:55;;;;;;;6.78;4.43;;;20.80;50.90;;;;;;4209994;28;20043;-49
2023/05/28 09:56:40;;;;;;;8.00;4.95;;;20.80;51.20;;;;;;4194431;28;20125;-48
2023/05/28 09:59:25;;;;;;;10.15;5.18;;;20.80;51.20;;;;;;4193189;28;20075;-45
2023/05/28 10:02:21;;;;;;;9.77;5.13;;;20.80;51.30;;;;;;4193244;28;20051;-46
2023/05/28 10:05:08;;;;;;;5.68;4.97;;;20.80;52.00;;;;;;4193105;28;20179;-45
2023/05/28 10:07:51;;;;;;;9.25;6.28;;;20.90;52.00;;;;;;4193078;28;20051;-53
2023/05/28 10:10:35;;;;;;;8.25;5.50;;;20.90;51.70;;;;;;4192997;28;20047;-44
2023/05/28 10:13:17;;;;;;;8.55;5.45;;;20.90;51.70;;;;;;4209075;28;20072;-45
2023/05/28 10:15:58;;;;;;;10.13;5.45;;;20.90;51.60;;;;;;4209733;28;20050;-56
2023/05/28 10:18:42;;;;;;;5.95;4.97;;;20.90;52.40;;;;;;4209714;28;20047;-51
2023/05/28 10:21:24;;;;;;;6.18;5.45;;;21.00;52.20;;;;;;4209742;28;20384;-52
2023/05/28 10:24:06;;;;;;;10.80;6.57;;;21.00;52.20;;;;;;4208459;28;20055;-47
2023/05/28 10:26:49;;;;;;;7.85;5.55;;;21.00;52.20;;;;;;4207628;28;20419;-45
2023/05/28 10:29:41;;;;;;;7.32;5.70;;;21.00;51.60;;;;;;4194415;28;20067;-47
2023/05/28 10:32:22;;;;;;;6.43;5.38;;;21.10;51.30;;;;;;4175873;28;20067;-45
2023/05/28 10:35:04;;;;;;;8.20;4.90;;;21.10;52.60;;;;;;4175973;28;20056;-46
2023/05/28 10:37:45;;;;;;;7.40;5.32;;;21.00;52.10;;;;;;4175945;28;20091;-44
2023/05/28 10:40:26;;;;;;;8.32;5.78;;;21.10;52.60;;;;;;4176087;28;20048;-54
2023/05/28 10:43:45;;;;;;;7.85;5.32;;;21.20;52.70;;;;;;4176360;28;20182;-46
2023/05/28 10:46:36;;;;;;;7.70;5.43;;;21.10;52.70;;;;;;4174714;28;20114;-44
2023/05/28 10:49:19;;;;;;;7.45;4.50;;;21.10;53.00;;;;;;4176020;28;20142;-45
2023/05/28 10:52:02;;;;;;;8.57;5.00;;;21.20;52.90;;;;;;4175902;28;20054;-48
2023/05/28 10:54:44;;;;;;;9.88;4.90;;;21.20;52.90;;;;;;4174956;28;20056;-44
2023/05/28 10:57:25;;;;;;;6.00;4.55;;;21.10;52.80;;;;;;4176130;28;20491;-46
2023/05/28 11:00:13;;;;;;;6.80;4.72;;;21.20;52.90;;;;;;4175784;28;20048;-44
2023/05/28 11:02:55;;;;;;;7.68;4.18;;;21.20;52.80;;;;;;4176050;28;20052;-45
2023/05/28 11:05:37;;;;;;;8.32;4.15;;;21.20;52.70;;;;;;4175839;28;20133;-44
2023/05/28 11:08:18;;;;;;;4.68;3.83;;;21.20;52.70;;;;;;4177642;28;20071;-45
2023/05/28 11:11:00;;;;;;;7.85;4.30;;;21.20;52.80;;;;;;4182905;28;20051;-49
2023/05/28 11:13:43;;;;;;;7.53;4.57;;;21.30;53.20;;;;;;4201810;28;20051;-47
2023/05/28 11:16:26;;;;;;;4.53;3.50;;;21.30;53.30;;;;;;4192255;28;20520;-45
2023/05/28 11:19:08;;;;;;;5.95;3.67;;;21.30;53.40;;;;;;4190399;28;20066;-54
2023/05/28 11:21:51;;;;;;;6.18;3.63;;;21.30;53.50;;;;;;4192034;28;20066;-44
2023/05/28 11:24:33;;;;;;;7.55;3.97;;;21.30;53.40;;;;;;4192089;28;20437;-44
2023/05/28 11:27:13;;;;;;;6.28;3.92;;;21.30;53.50;;;;;;4204940;28;20101;-44
2023/05/28 11:29:56;;;;;;;6.22;3.33;;;21.30;53.50;;;;;;4192054;28;20055;-53
2023/05/28 11:32:39;;;;;;;7.55;4.05;;;21.30;53.60;;;;;;4191329;28;20067;-52
2023/05/28 11:35:20;;;;;;;6.97;3.65;;;21.20;53.90;;;;;;4207501;28;20129;-54
2023/05/28 11:38:01;;;;;;;7.55;4.10;;;21.30;54.30;;;;;;4208714;28;20046;-54
2023/05/28 11:40:43;;;;;;;6.15;3.55;;;21.20;54.50;;;;;;4198537;28;20121;-54
2023/05/28 11:43:25;;;;;;;8.32;3.97;;;21.30;54.70;;;;;;4190897;28;20507;-44
2023/05/28 11:46:06;;;;;;;6.82;3.88;;;21.30;55.10;;;;;;4192078;28;20205;-44
2023/05/28 11:48:50;;;;;;;7.60;3.88;;;21.30;55.30;;;;;;4191777;28;20407;-46
2023/05/28 11:51:32;;;;;;;9.25;3.55;;;21.30;55.40;;;;;;4191959;28;20043;-50
2023/05/28 11:54:13;;;;;;;7.18;3.50;;;21.40;55.50;;;;;;4201618;28;20105;-47
2023/05/28 11:56:53;;;;;;;8.10;3.90;;;21.40;55.50;;;;;;4208089;28;20051;-50
2023/05/28 11:59:35;;;;;;;9.90;4.47;;;21.40;55.70;;;;;;4191874;28;20483;-47
2023/05/28 12:02:18;;;;;;;7.15;4.30;;;21.30;55.80;;;;;;4191264;28;20063;-47
2023/05/28 12:05:03;;;;;;;7.13;3.83;;;21.30;56.00;;;;;;4191776;28;20129;-47
2023/05/28 12:07:48;;;;;;;7.90;3.67;;;21.30;56.20;;;;;;4191930;28;20503;-46
2023/05/28 12:10:31;;;;;;;7.00;3.53;;;21.30;56.20;;;;;;4191653;28;20055;-48
2023/05/28 12:13:13;;;;;;;7.78;3.65;;;21.30;56.40;;;;;;4191770;28;20569;-48
2023/05/28 12:16:06;;;;;;;9.30;4.25;;;21.30;56.50;;;;;;4190603;28;20081;-45
2023/05/28 12:18:47;;;;;;;10.02;4.07;;;21.30;56.60;;;;;;4191652;28;20553;-47
2023/05/28 12:21:35;;;;;;;7.20;4.15;;;21.40;56.80;;;;;;4192766;28;20382;-43
2023/05/28 12:24:16;;;;;;;8.40;3.75;;;21.30;56.90;;;;;;4193537;28;20060;-47
2023/05/28 12:26:57;;;;;;;9.85;3.58;;;21.40;57.10;;;;;;4194408;28;20055;-54
2023/05/28 12:29:38;;;;;;;;;;;21.40;57.20;;;;;;4194995;28;20434;-53
2023/05/28 12:32:19;;;;;;;8.32;4.00;;;21.40;57.30;;;;;;4194038;28;19928;-46
2023/05/28 12:35:00;;;;;;;8.02;3.97;;;21.30;57.40;;;;;;4194719;28;20047;-45
2023/05/28 12:37:45;;;;;;;7.70;3.78;;;21.30;57.50;;;;;;4177404;28;20376;-45
2023/05/28 12:40:26;;;;;;;12.45;3.90;;;21.30;57.60;;;;;;4190286;28;20060;-47
2023/05/28 12:43:07;;;;;;;9.23;3.90;;;21.30;57.60;;;;;;4181567;28;20179;-46
2023/05/28 12:45:48;;;;;;;8.95;3.88;;;21.30;57.70;;;;;;4194106;28;20055;-45
2023/05/28 12:48:29;;;;;;;8.38;4.03;;;21.20;57.90;;;;;;4193017;28;20533;-45
2023/05/28 12:51:10;;;;;;;10.25;4.47;;;21.30;58.00;;;;;;4194147;28;20499;-46
2023/05/28 12:53:52;;;;;;;11.18;4.03;;;21.30;58.10;;;;;;4194137;28;20245;-45
2023/05/28 12:56:33;;;;;;;6.40;3.90;;;21.30;58.40;;;;;;4197644;28;20051;-46
2023/05/28 12:59:22;;;;;;;10.18;4.70;;;21.30;58.60;;;;;;4192003;28;20526;-44
2023/05/28 13:02:03;;;;;;;10.15;4.22;;;21.20;58.70;;;;;;4193971;28;20063;-42
2023/05/28 13:04:44;;;;;;;11.32;4.20;;;21.20;58.70;;;;;;4193220;28;20060;-43
2023/05/28 13:07:25;;;;;;;12.57;4.10;;;21.20;58.80;;;;;;4194031;28;20051;-43
2023/05/28 13:10:09;;;;;;;8.75;4.10;;;21.20;59.00;;;;;;4193966;28;20155;-45
2023/05/28 13:12:52;;;;;;;9.55;4.10;;;21.20;59.20;;;;;;4193883;28;20129;-46
2023/05/28 13:15:33;;;;;;;11.15;4.10;;;21.20;58.80;;;;;;4193590;28;20059;-47
2023/05/28 13:18:14;;;;;;;7.10;4.15;;;21.10;58.50;;;;;;4194764;28;20052;-46
2023/05/28 13:20:55;;;;;;;11.57;4.03;;;21.20;58.30;;;;;;4193505;28;20126;-48
2023/05/28 13:23:37;;;;;;;7.00;4.20;;;21.20;58.20;;;;;;4192574;28;20052;-44
2023/05/28 13:26:19;;;;;;;6.30;3.45;;;21.20;58.10;;;;;;4196042;28;20113;-43
2023/05/28 13:29:01;;;;;;;9.30;3.35;;;21.10;58.00;;;;;;4186975;28;20059;-45
2023/05/28 13:31:42;;;;;;;7.25;3.75;;;21.20;58.00;;;;;;4193702;28;20125;-44
2023/05/28 13:34:22;;;;;;;8.50;3.08;;;21.10;57.30;;;;;;4192991;28;20514;-44
2023/05/28 13:37:04;;;;;;;7.57;3.40;;;21.10;57.30;;;;;;4193139;28;20059;-44
2023/05/28 13:39:45;;;;;;;10.05;3.20;;;21.10;56.90;;;;;;4193240;28;20055;-42
2023/05/28 13:42:28;;;;;;;9.75;3.70;;;21.10;56.80;;;;;;4193260;28;20047;-43
2023/05/28 13:45:10;;;;;;;6.80;3.17;;;21.10;56.60;;;;;;4186234;28;20399;-43
2023/05/28 13:47:51;;;;;;;8.32;3.42;;;21.10;56.50;;;;;;4192942;28;20043;-42
2023/05/28 13:50:33;;;;;;;11.50;3.67;;;21.10;56.30;;;;;;4179266;28;20097;-43
2023/05/28 13:53:14;;;;;;;;;;;21.10;56.30;;;;;;4193033;28;20411;-47
2023/05/28 13:55:55;;;;;;;7.60;3.17;;;21.10;56.40;;;;;;4192890;28;20489;-43
2023/05/28 13:58:37;;;;;;;9.98;3.33;;;21.10;55.90;;;;;;4193054;28;20617;-45
2023/05/28 14:01:18;;;;;;;6.32;3.20;;;21.10;55.70;;;;;;4192769;28;20063;-47
2023/05/28 14:03:59;;;;;;;8.00;3.33;;;21.10;55.90;;;;;;4209422;28;20050;-47
2023/05/28 14:06:40;;;;;;;8.32;3.25;;;21.10;55.90;;;;;;4205266;28;20051;-46
2023/05/28 14:09:21;;;;;;;9.80;4.13;;;21.10;55.40;;;;;;4193133;28;20075;-43
2023/05/28 14:12:02;;;;;;;8.73;3.05;;;21.20;55.60;;;;;;4192876;28;20059;-49